Time;durP1;ratioP1;P1;durP2;ratioP2;P2;SDS_P1;SDS_P2;PMS_P1;PMS_P2;Temp;Humidity;BMP_temperature;BMP_pressure;BME280_temperature;BME280_humidity;BME280_pressure;Samples;Min_cycle;Max_cycle;Signal;HPM_P1;HPM_P2
2023/10/18 00:00:28;;;;;;;;;;;;;;;12.72;43.94;99653.28;5059018;28;19924;-93
2023/10/18 00:02:53;;;;;;;;;;;;;;;12.68;44.45;99654.97;5059412;28;20390;-92
2023/10/18 00:05:21;;;;;;;;;;;;;;;12.59;44.55;99651.19;5074951;28;20006;-94
2023/10/18 00:07:46;;;;;;;;;;;;;;;12.60;44.68;99653.63;5075708;28;19917;-93
2023/10/18 00:10:12;;;;;;;;;;;;;;;12.60;44.57;99639.31;5058433;28;20008;-92
2023/10/18 00:12:39;;;;;;;;;;;;;;;12.62;44.64;99642.56;5058701;28;19913;-93
2023/10/18 00:15:05;;;;;;;;;;;;;;;12.54;45.30;99639.31;5059464;28;20354;-92
2023/10/18 00:17:31;;;;;;;;;;;;;;;12.53;45.79;99642.28;5058894;28;19924;-93
2023/10/18 00:19:57;;;;;;;;;;;;;;;12.56;45.29;99639.03;5058355;28;19917;-93
2023/10/18 00:22:22;;;;;;;;;;;;;;;12.59;45.44;99632.28;5058195;28;19920;-94
2023/10/18 00:24:47;;;;;;;;;;;;;;;12.60;45.72;99631.22;5058163;28;20019;-93
2023/10/18 00:27:13;;;;;;;;;;;;;;;12.57;45.95;99629.84;5058245;28;19913;-93
2023/10/18 00:29:38;;;;;;;;;;;;;;;12.47;46.28;99627.16;5058983;28;19919;-92
2023/10/18 00:32:04;;;;;;;;;;;;;;;12.41;47.23;99625.56;5058890;28;19912;-93
2023/10/18 00:34:30;;;;;;;;;;;;;;;12.40;47.77;99626.66;5059306;28;19917;-92
2023/10/18 00:36:55;;;;;;;;;;;;;;;12.39;47.67;99625.88;5058990;28;19916;-93
2023/10/18 00:39:27;;;;;;;;;;;;;;;12.41;47.70;99614.75;5075220;28;20377;-93
2023/10/18 00:41:53;;;;;;;;;;;;;;;12.44;47.71;99619.63;5058721;28;20005;-94
2023/10/18 00:44:21;;;;;;;;;;;;;;;12.43;47.86;99615.31;5058177;28;20401;-93
2023/10/18 00:46:47;;;;;;;;;;;;;;;12.37;48.33;99616.41;5058671;28;19928;-94
2023/10/18 00:49:15;;;;;;;;;;;;;;;12.31;48.49;99613.72;5057650;28;19912;-94
2023/10/18 00:51:43;;;;;;;;;;;;;;;12.25;48.66;99614.00;5057932;28;19924;-95
2023/10/18 00:54:12;;;;;;;;;;;;;;;12.22;48.93;99620.78;5057687;28;19924;-93
2023/10/18 00:56:43;;;;;;;;;;;;;;;12.26;49.24;99631.81;5058006;28;20010;-93
2023/10/18 00:59:14;;;;;;;;;;;;;;;12.17;49.06;99623.47;5057904;28;19916;-93
2023/10/18 01:01:43;;;;;;;;;;;;;;;12.18;48.67;99618.88;5058448;28;19913;-93
2023/10/18 01:04:12;;;;;;;;;;;;;;;12.20;48.22;99616.72;5058102;28;19913;-93
2023/10/18 01:06:39;;;;;;;;;;;;;;;12.26;47.95;99621.00;5057746;28;19912;-93
2023/10/18 01:09:06;;;;;;;;;;;;;;;12.28;48.08;99635.84;5057789;28;20293;-94
2023/10/18 01:11:31;;;;;;;;;;;;;;;12.26;48.43;99623.72;5058522;28;19919;-94
2023/10/18 01:14:00;;;;;;;;;;;;;;;12.25;48.41;99636.41;5057498;28;20003;-94
2023/10/18 01:16:30;;;;;;;;;;;;;;;12.12;48.84;99629.69;5057925;28;20007;-94
2023/10/18 01:18:55;;;;;;;;;;;;;;;12.11;48.59;99630.75;5058890;28;19913;-93
2023/10/18 01:21:21;;;;;;;;;;;;;;;12.10;49.11;99628.34;5057835;28;19972;-94
2023/10/18 01:23:50;;;;;;;;;;;;;;;12.07;49.15;99631.56;5057573;28;19935;-94
2023/10/18 01:26:16;;;;;;;;;;;;;;;12.05;49.14;99626.44;5057490;28;20358;-92
2023/10/18 01:28:42;;;;;;;;;;;;;;;12.00;49.33;99628.38;5057643;28;19916;-94
2023/10/18 01:31:07;;;;;;;;;;;;;;;11.93;49.71;99625.91;5058263;28;20336;-94
2023/10/18 01:33:43;;;;;;;;;;;;;;;12.00;49.49;99628.38;5057574;28;20337;-93
2023/10/18 01:36:12;;;;;;;;;;;;;;;11.93;50.01;99629.44;5060279;28;20279;-94
2023/10/18 01:38:38;;;;;;;;;;;;;;;11.87;50.09;99621.56;5062366;28;19918;-94
2023/10/18 01:41:13;;;;;;;;;;;;;;;11.82;49.94;99625.09;5061343;28;19920;-94
2023/10/18 01:43:40;;;;;;;;;;;;;;;11.83;50.22;99633.97;5062683;28;19947;-93
2023/10/18 01:46:08;;;;;;;;;;;;;;;11.80;50.62;99629.94;5078866;28;19913;-94
2023/10/18 01:48:37;;;;;;;;;;;;;;;11.82;50.57;99629.69;5061427;28;20283;-94
2023/10/18 01:51:06;;;;;;;;;;;;;;;11.85;50.56;99632.66;5060674;28;20348;-94
2023/10/18 01:53:32;;;;;;;;;;;;;;;11.86;50.29;99639.66;5060647;28;19920;-93
2023/10/18 01:56:00;;;;;;;;;;;;;;;11.92;50.31;99641.31;5061169;28;19962;-93
2023/10/18 01:58:26;;;;;;;;;;;;;;;11.96;50.01;99638.09;5060960;28;19934;-94
2023/10/18 02:00:53;;;;;;;;;;;;;;;11.86;50.88;99642.34;5060515;28;20007;-94
2023/10/18 02:03:19;;;;;;;;;;;;;;;11.91;50.58;99642.41;5061180;28;19912;-93
2023/10/18 02:05:46;;;;;;;;;;;;;;;11.98;50.33;99639.41;5043704;28;19919;-94
2023/10/18 02:08:11;;;;;;;;;;;;;;;12.04;50.56;99641.03;5060595;28;19935;-93
2023/10/18 02:10:40;;;;;;;;;;;;;;;12.06;49.93;99638.06;5060341;28;20384;-93
2023/10/18 02:13:07;;;;;;;;;;;;;;;12.09;50.09;99638.31;5060988;28;19923;-95
2023/10/18 02:15:32;;;;;;;;;;;;;;;12.08;50.32;99642.13;5043350;28;19913;-94
2023/10/18 02:17:58;;;;;;;;;;;;;;;11.99;50.50;99642.91;5061021;28;19934;-94
2023/10/18 02:20:26;;;;;;;;;;;;;;;11.92;50.88;99645.91;5060287;28;19917;-93
2023/10/18 02:23:01;;;;;;;;;;;;;;;11.86;51.25;99641.56;5060633;28;19913;-93
2023/10/18 02:25:42;;;;;;;;;;;;;;;11.86;51.29;99644.25;5044161;28;19948;-94
2023/10/18 02:28:22;;;;;;;;;;;;;;;11.85;50.94;99648.84;5046594;28;19935;-94
2023/10/18 02:31:13;;;;;;;;;;;;;;;11.79;51.19;99646.41;5063177;28;19923;-94
2023/10/18 02:33:42;;;;;;;;;;;;;;;11.71;50.96;99643.16;5063264;28;19977;-94
2023/10/18 02:36:32;;;;;;;;;;;;;;;11.61;50.76;99661.22;5060362;28;19912;-93
2023/10/18 02:39:01;;;;;;;;;;;;;;;11.52;51.07;99655.56;5064137;28;19920;-94
2023/10/18 02:41:27;;;;;;;;;;;;;;;11.57;50.91;99660.16;5060935;28;19912;-94
2023/10/18 02:43:52;;;;;;;;;;;;;;;11.62;51.06;99666.38;5060179;28;19912;-94
2023/10/18 02:46:23;;;;;;;;;;;;;;;11.61;50.72;99664.72;5043662;28;20017;-94
2023/10/18 02:48:50;;;;;;;;;;;;;;;11.60;50.29;99670.38;5061465;28;19912;-93
2023/10/18 02:51:15;;;;;;;;;;;;;;;11.57;50.40;99674.44;5060069;28;20382;-93
2023/10/18 02:53:41;;;;;;;;;;;;;;;11.65;49.87;99681.19;5059851;28;19924;-94
2023/10/18 02:56:06;;;;;;;;;;;;;;;11.64;50.10;99669.59;5059687;28;20302;-93
2023/10/18 02:58:34;;;;;;;;;;;;;;;11.70;50.04;99667.69;5059844;28;19912;-94
2023/10/18 03:01:05;;;;;;;;;;;;;;;11.73;49.57;99657.19;5059164;28;19920;-94
2023/10/18 03:03:31;;;;;;;;;;;;;;;11.76;49.19;99657.72;5059315;28;19970;-94
2023/10/18 03:05:58;;;;;;;;;;;;;;;11.76;49.13;99671.22;5062322;28;19916;-94
2023/10/18 03:08:23;;;;;;;;;;;;;;;11.71;49.10;99651.25;5060504;28;19913;-93
2023/10/18 03:10:51;;;;;;;;;;;;;;;11.72;49.24;99647.50;5059398;28;19935;-94
2023/10/18 03:13:23;;;;;;;;;;;;;;;11.75;49.18;99650.75;5059299;28;19966;-92
2023/10/18 03:16:04;;;;;;;;;;;;;;;11.68;50.14;99656.38;5061570;28;19917;-93
2023/10/18 03:18:30;;;;;;;;;;;;;;;11.62;50.35;99643.97;5045211;28;20285;-92
2023/10/18 03:20:57;;;;;;;;;;;;;;;11.64;50.21;99639.09;5059850;28;19960;-93
2023/10/18 03:23:22;;;;;;;;;;;;;;;11.60;50.57;99638.03;5059949;28;19912;-93
2023/10/18 03:25:59;;;;;;;;;;;;;;;11.52;50.76;99642.88;5059701;28;19970;-92
2023/10/18 03:28:34;;;;;;;;;;;;;;;11.44;51.45;99635.31;5042936;28;19918;-93
2023/10/18 03:31:00;;;;;;;;;;;;;;;11.37;53.34;99636.66;5061683;28;19930;-93
2023/10/18 03:33:28;;;;;;;;;;;;;;;11.28;53.89;99636.38;5061603;28;19919;-93
2023/10/18 03:36:00;;;;;;;;;;;;;;;11.22;53.90;99629.34;5060594;28;20003;-94
2023/10/18 03:38:29;;;;;;;;;;;;;;;11.17;53.17;99632.84;5061891;28;19919;-93
2023/10/18 03:40:57;;;;;;;;;;;;;;;11.23;52.59;99631.78;5059067;28;19968;-94
2023/10/18 03:43:26;;;;;;;;;;;;;;;11.23;52.91;99634.47;5060345;28;20267;-93
2023/10/18 03:48:46;;;;;;;;;;;;;;;11.29;53.53;99630.72;5063345;28;19942;-94
2023/10/18 03:51:17;;;;;;;;;;;;;;;11.25;53.76;99635.03;5077023;28;20500;-93
2023/10/18 03:53:42;;;;;;;;;;;;;;;11.33;53.04;99631.00;5060564;28;20314;-94
2023/10/18 03:56:09;;;;;;;;;;;;;;;11.37;52.66;99639.34;5060024;28;19913;-95
2023/10/18 03:58:36;;;;;;;;;;;;;;;11.40;52.58;99638.81;5075492;28;19913;-94
2023/10/18 04:01:05;;;;;;;;;;;;;;;11.36;53.23;99640.44;5059171;28;19921;-93
2023/10/18 04:03:30;;;;;;;;;;;;;;;11.23;53.87;99634.47;5059883;28;19924;-95
2023/10/18 04:06:08;;;;;;;;;;;;;;;11.17;53.91;99632.03;5075865;28;19913;-95
2023/10/18 04:08:34;;;;;;;;;;;;;;;11.15;54.00;99640.38;5060205;28;19919;-93
2023/10/18 04:10:59;;;;;;;;;;;;;;;11.01;54.51;99631.97;5058926;28;19912;-94
2023/10/18 04:13:31;;;;;;;;;;;;;;;11.03;54.18;99632.53;5076998;28;19913;-94
2023/10/18 04:16:11;;;;;;;;;;;;;;;10.96;54.31;99637.38;5043133;28;19924;-94
2023/10/18 04:18:37;;;;;;;;;;;;;;;10.89;54.36;99642.19;5073458;28;19913;-93
2023/10/18 04:21:05;;;;;;;;;;;;;;;10.91;53.80;99640.88;5089091;28;20065;-94
2023/10/18 04:23:30;;;;;;;;;;;;;;;10.75;54.82;99635.66;5056020;28;19998;-94
2023/10/18 04:26:00;;;;;;;;;;;;;;;10.72;54.45;99643.19;5056700;28;19912;-94
2023/10/18 04:28:38;;;;;;;;;;;;;;;10.70;54.55;99634.56;5049495;28;19912;-93
2023/10/18 04:31:08;;;;;;;;;;;;;;;10.71;54.38;99638.88;5054857;28;19916;-93
2023/10/18 04:33:41;;;;;;;;;;;;;;;10.65;54.23;99641.81;5062117;28;20331;-91
2023/10/18 04:36:15;;;;;;;;;;;;;;;10.61;55.06;99646.13;5062262;28;19916;-94
2023/10/18 04:38:47;;;;;;;;;;;;;;;10.58;55.38;99642.03;5049919;28;19987;-93
2023/10/18 04:41:52;;;;;;;;;;;;;;;;;;;;;
2023/10/18 04:44:23;;;;;;;;;;;;;;;10.69;54.57;99651.00;5041688;28;20361;-94
2023/10/18 04:46:52;;;;;;;;;;;;;;;10.68;54.59;99646.66;5046675;28;19932;-93
2023/10/18 04:49:23;;;;;;;;;;;;;;;10.66;55.29;99652.31;5056608;28;19972;-91
2023/10/18 04:52:05;;;;;;;;;;;;;;;10.63;54.77;99652.03;5066661;28;19916;-91
2023/10/18 04:57:04;;;;;;;;;;;;;;;10.54;55.72;99654.41;5073765;28;19927;-93
2023/10/18 04:59:34;;;;;;;;;;;;;;;10.57;55.88;99661.97;5033259;28;20399;-92
2023/10/18 05:02:02;;;;;;;;;;;;;;;10.49;55.80;99655.19;5042146;28;19927;-94
2023/10/18 05:04:34;;;;;;;;;;;;;;;10.51;56.29;99658.44;5029222;28;20385;-89
2023/10/18 05:07:14;;;;;;;;;;;;;;;10.57;56.05;99663.84;5050859;28;19915;-92
2023/10/18 05:09:57;;;;;;;;;;;;;;;10.62;55.37;99664.69;5046971;28;20386;-92
2023/10/18 05:13:01;;;;;;;;;;;;;;;10.47;54.12;99670.00;5043641;28;19920;-94
2023/10/18 05:15:31;;;;;;;;;;;;;;;10.55;53.18;99672.19;5057148;28;20334;-96
2023/10/18 05:18:05;;;;;;;;;;;;;;;10.65;53.11;99676.81;5037503;28;19913;-92
2023/10/18 05:23:26;;;;;;;;;;;;;;;10.74;52.29;99672.56;4978492;28;19972;-94
2023/10/18 05:28:46;;;;;;;;;;;;;;;10.95;53.27;99676.16;4991518;28;20317;-91
2023/10/18 05:41:56;;;;;;;;;;;;;;;11.16;52.76;99687.00;5061020;28;19923;-90
2023/10/18 05:44:28;;;;;;;;;;;;;;;11.21;52.37;99690.53;5059237;28;19931;-89
2023/10/18 05:46:53;;;;;;;;;;;;;;;11.22;52.31;99688.63;5037674;28;19923;-91
2023/10/18 05:49:25;;;;;;;;;;;;;;;11.21;51.74;99690.53;5039513;28;19917;-92
2023/10/18 05:52:36;;;;;;;;;;;;;;;11.17;52.04;99692.13;5040131;28;20275;-92
2023/10/18 05:54:50;;;;;;;;;;;;;;;11.22;52.86;99699.44;5068630;28;19943;-92
2023/10/18 05:57:22;;;;;;;;;;;;;;;11.39;53.17;99707.28;5045962;28;19917;-94
2023/10/18 05:59:49;;;;;;;;;;;;;;;11.42;52.94;99704.88;5039152;28;19942;-90
2023/10/18 06:02:23;;;;;;;;;;;;;;;11.41;52.15;99708.63;5043997;28;19920;-92
2023/10/18 06:04:52;;;;;;;;;;;;;;;11.44;52.67;99707.31;5056002;28;19916;-91
2023/10/18 06:07:54;;;;;;;;;;;;;;;11.48;53.00;99703.81;5055042;28;19922;-89
2023/10/18 06:10:23;;;;;;;;;;;;;;;11.46;52.44;99711.38;5046977;28;19924;-90
2023/10/18 06:12:57;;;;;;;;;;;;;;;11.47;51.63;99710.28;5039440;28;19960;-92
2023/10/18 06:15:38;;;;;;;;;;;;;;;11.47;51.03;99714.88;5057496;28;19921;-92
2023/10/18 06:18:17;;;;;;;;;;;;;;;11.28;51.27;99709.94;5040948;28;19924;-94
2023/10/18 06:20:44;;;;;;;;;;;;;;;11.39;51.16;99712.69;5044333;28;19917;-92
2023/10/18 06:23:36;;;;;;;;;;;;;;;11.47;50.88;99721.06;5025653;28;19959;-92
2023/10/18 06:26:08;;;;;;;;;;;;;;;;;;;;;
2023/10/18 06:28:37;;;;;;;;;;;;;;;11.58;51.16;99723.78;5053174;28;20007;-94
2023/10/18 06:31:22;;;;;;;;;;;;;;;;;;;;;
2023/10/18 06:36:44;;;;;;;;;;;;;;;11.66;51.03;99732.19;5031577;28;19904;-96
2023/10/18 06:42:26;;;;;;;;;;;;;;;11.85;49.70;99729.78;4993762;28;19917;-93
2023/10/18 06:44:56;;;;;;;;;;;;;;;12.01;49.55;99735.22;5020566;28;19913;-92
2023/10/18 06:47:31;;;;;;;;;;;;;;;12.07;49.05;99739.53;4999102;28;19929;-94
2023/10/18 06:50:37;;;;;;;;;;;;;;;;;;;;;
2023/10/18 06:53:11;;;;;;;;;;;;;;;12.36;48.62;99733.59;5039378;28;20007;-91
2023/10/18 06:55:56;;;;;;;;;;;;;;;12.34;48.21;99736.56;5038906;28;20020;-93
2023/10/18 07:01:54;;;;;;;;;;;;;;;12.50;48.16;99737.38;5003582;28;19941;-96
2023/10/18 07:04:49;;;;;;;;;;;;;;;;;;;;;
2023/10/18 07:07:26;;;;;;;;;;;;;;;12.78;47.15;99727.03;5070409;28;20011;-95
2023/10/18 07:13:12;;;;;;;;;;;;;;;12.76;46.83;99715.69;5079114;28;19912;-94
2023/10/18 07:15:47;;;;;;;;;;;;;;;12.89;46.80;99717.84;5077836;28;19917;-93
2023/10/18 07:18:20;;;;;;;;;;;;;;;12.95;46.40;99705.94;5056279;28;19916;-94
2023/10/18 07:20:53;;;;;;;;;;;;;;;13.09;46.04;99698.03;5070605;28;19928;-93
2023/10/18 07:23:46;;;;;;;;;;;;;;;13.27;45.57;99699.31;5055995;28;19935;-94
2023/10/18 07:26:24;;;;;;;;;;;;;;;13.36;45.88;99702.25;5094089;28;19924;-94
2023/10/18 07:32:06;;;;;;;;;;;;;;;13.43;45.38;99705.47;5015930;28;20059;-91
2023/10/18 07:34:32;;;;;;;;;;;;;;;13.54;45.10;99699.72;5046629;28;20014;-92
2023/10/18 07:37:16;;;;;;;;;;;;;;;13.45;44.94;99701.41;5078498;28;19970;-92
2023/10/18 07:40:08;;;;;;;;;;;;;;;13.58;44.66;99691.84;5072949;28;19956;-94
2023/10/18 07:42:53;;;;;;;;;;;;;;;13.52;44.09;99696.47;5078844;28;20430;-93
2023/10/18 07:45:21;;;;;;;;;;;;;;;13.60;43.95;99695.09;5054705;28;19917;-94
2023/10/18 07:47:55;;;;;;;;;;;;;;;13.68;43.83;99694.50;5092076;28;19992;-96
2023/10/18 07:56:11;;;;;;;;;;;;;;;13.92;44.58;99700.00;5071844;28;20305;-92
2023/10/18 07:58:47;;;;;;;;;;;;;;;14.05;43.53;99697.72;5061614;28;19917;-92
2023/10/18 08:01:40;;;;;;;;;;;;;;;14.04;43.69;99699.63;5062746;28;19999;-93
2023/10/18 08:04:02;;;;;;;;;;;;;;;14.19;43.44;99693.28;5072668;28;19924;-93
2023/10/18 08:06:27;;;;;;;;;;;;;;;14.15;43.36;99679.50;5052925;28;19913;-96
2023/10/18 08:09:09;;;;;;;;;;;;;;;14.19;43.20;99682.44;5061755;28;19917;-96
2023/10/18 08:12:16;;;;;;;;;;;;;;;14.15;43.38;99674.09;5032442;28;19929;-94
2023/10/18 08:14:46;;;;;;;;;;;;;;;14.33;43.37;99685.31;5015716;28;19990;-92
2023/10/18 08:22:42;;;;;;;;;;;;;;;14.64;43.99;99682.31;5016278;28;19952;-94
2023/10/18 08:28:26;;;;;;;;;;;;;;;14.90;42.63;99680.09;4975649;28;19928;-93
2023/10/18 08:33:39;;;;;;;;;;;;;;;15.00;43.00;99679.97;5024926;28;19917;-94
2023/10/18 08:36:13;;;;;;;;;;;;;;;15.01;43.28;99687.03;5029388;28;19972;-95
2023/10/18 08:38:41;;;;;;;;;;;;;;;15.06;43.10;99680.75;5009087;28;20402;-94
2023/10/18 08:41:19;;;;;;;;;;;;;;;15.11;42.72;99684.19;5013948;28;20430;-95
2023/10/18 08:43:58;;;;;;;;;;;;;;;15.25;42.51;99692.44;5067552;28;19913;-92
2023/10/18 08:46:26;;;;;;;;;;;;;;;15.18;42.73;99688.47;5058413;28;19913;-94
2023/10/18 08:49:24;;;;;;;;;;;;;;;15.26;42.66;99693.25;5078234;28;19928;-95
2023/10/18 08:52:06;;;;;;;;;;;;;;;15.38;43.07;99690.91;5060264;28;19973;-93
2023/10/18 08:54:47;;;;;;;;;;;;;;;;;;;;;
2023/10/18 08:57:20;;;;;;;;;;;;;;;15.57;42.48;99688.19;5049809;28;20020;-92
2023/10/18 08:59:56;;;;;;;;;;;;;;;15.66;42.39;99685.63;5046736;28;19924;-95
2023/10/18 09:05:06;;;;;;;;;;;;;;;15.46;42.73;99694.84;5077263;22;19925;-94
2023/10/18 09:11:08;;;;;;;;;;;;;;;15.69;42.48;99683.13;5061226;28;19967;-93
2023/10/18 09:13:42;;;;;;;;;;;;;;;15.75;42.34;99673.84;5048472;28;19939;-96
2023/10/18 09:16:19;;;;;;;;;;;;;;;15.78;42.21;99680.56;5063045;28;19927;-94
2023/10/18 09:18:48;;;;;;;;;;;;;;;15.80;42.59;99681.09;5045536;28;19912;-94
2023/10/18 09:21:32;;;;;;;;;;;;;;;15.95;42.45;99675.41;5013008;28;19928;-94
2023/10/18 09:24:21;;;;;;;;;;;;;;;;;;;;;
2023/10/18 09:27:09;;;;;;;;;;;;;;;16.03;42.35;99676.63;5054736;28;20011;-93
2023/10/18 09:29:36;;;;;;;;;;;;;;;16.09;42.52;99680.09;5042682;28;20448;-94
2023/10/18 09:32:09;;;;;;;;;;;;;;;16.19;42.26;99685.34;5024152;28;19913;-93
2023/10/18 09:34:34;;;;;;;;;;;;;;;16.22;42.40;99664.91;5024341;28;19924;-94
2023/10/18 10:08:18;;;;;;;;;;;;;;;16.63;40.18;99629.63;5049618;28;19956;-96
2023/10/18 10:10:54;;;;;;;;;;;;;;;16.66;39.96;99626.28;5032072;28;19988;-94
2023/10/18 10:13:32;;;;;;;;;;;;;;;16.78;40.38;99623.06;5040617;28;19943;-96
2023/10/18 10:19:15;;;;;;;;;;;;;;;;;;;;;
2023/10/18 10:21:49;;;;;;;;;;;;;;;16.98;40.04;99616.44;5050282;28;19949;-96
2023/10/18 10:24:42;;;;;;;;;;;;;;;;;;;;;
2023/10/18 10:30:44;;;;;;;;;;;;;;;;;;;;;
2023/10/18 10:33:22;;;;;;;;;;;;;;;;;;;;;
2023/10/18 10:36:04;;;;;;;;;;;;;;;17.07;38.84;99598.28;4952479;29;19981;-96
2023/10/18 10:39:40;;;;;;;;;;;;;;;17.16;38.88;99591.00;4980839;28;19901;-95
2023/10/18 10:41:51;;;;;;;;;;;;;;;17.04;39.78;99595.38;5001116;28;20013;-95
2023/10/18 11:05:54;;;;;;;;;;;;;;;;;;;;;
2023/10/18 11:08:27;;;;;;;;;;;;;;;17.51;38.39;99547.69;4959749;28;20026;-94
2023/10/18 11:11:41;;;;;;;;;;;;;;;;;;;;;
2023/10/18 11:14:27;;;;;;;;;;;;;;;;;;;;;
2023/10/18 11:17:17;;;;;;;;;;;;;;;17.65;37.80;99541.41;4909631;29;20256;-94
2023/10/18 11:20:30;;;;;;;;;;;;;;;17.68;37.64;99535.31;4945586;29;20019;-95
2023/10/18 11:23:05;;;;;;;;;;;;;;;17.74;37.92;99534.06;4940757;28;20036;-95
2023/10/18 11:28:56;;;;;;;;;;;;;;;;;;;;;
2023/10/18 11:40:44;;;;;;;;;;;;;;;17.95;37.64;99524.28;4961872;29;19962;-94
2023/10/18 11:43:21;;;;;;;;;;;;;;;18.00;37.06;99528.00;5014328;28;19924;-93
2023/10/18 11:45:49;;;;;;;;;;;;;;;18.06;37.06;99524.81;5005693;28;19920;-94
2023/10/18 11:49:11;;;;;;;;;;;;;;;18.12;36.85;99531.72;4984632;28;19914;-93
2023/10/18 11:51:48;;;;;;;;;;;;;;;18.10;37.06;99525.78;4922029;29;19926;-95
2023/10/18 11:57:24;;;;;;;;;;;;;;;18.20;36.77;99532.88;4967246;28;19922;-93
2023/10/18 12:02:58;;;;;;;;;;;;;;;18.40;36.18;99531.50;5023721;28;19917;-94
2023/10/18 12:05:32;;;;;;;;;;;;;;;18.62;36.05;99535.25;5008156;28;19917;-92
2023/10/18 12:08:05;;;;;;;;;;;;;;;18.66;36.55;99528.03;5025080;28;20343;-94
2023/10/18 12:10:34;;;;;;;;;;;;;;;18.86;36.08;99527.41;5021751;28;20023;-93
2023/10/18 12:13:09;;;;;;;;;;;;;;;18.92;35.39;99523.41;5015878;28;19913;-93
2023/10/18 12:15:39;;;;;;;;;;;;;;;19.13;34.84;99520.03;5016062;28;19917;-90
2023/10/18 12:21:29;;;;;;;;;;;;;;;19.40;34.77;99524.34;4977244;28;19994;-94
2023/10/18 12:24:28;;;;;;;;;;;;;;;;;;;;;
2023/10/18 12:27:49;;;;;;;;;;;;;;;;;;;;;
2023/10/18 12:31:20;;;;;;;;;;;;;;;19.41;35.41;99525.19;5035361;28;20397;-95
2023/10/18 12:33:40;;;;;;;;;;;;;;;19.46;35.49;99528.53;5021696;28;19924;-95
2023/10/18 12:38:58;;;;;;;;;;;;;;;19.22;35.12;99525.53;5021267;28;19962;-92
2023/10/18 13:00:11;;;;;;;;;;;;;;;18.59;35.92;99514.84;4968534;28;20452;-94
2023/10/18 13:09:21;;;;;;;;;;;;;;;18.49;36.35;99515.97;4849789;29;20442;-91
2023/10/18 13:12:07;;;;;;;;;;;;;;;18.48;36.55;99513.56;4934200;28;19921;-96
2023/10/18 13:14:44;;;;;;;;;;;;;;;;;;;;;
2023/10/18 13:37:14;;;;;;;;;;;;;;;;;;;;;
2023/10/18 13:39:50;;;;;;;;;;;;;;;18.01;38.39;99492.25;4876988;29;19979;-94
2023/10/18 13:42:24;;;;;;;;;;;;;;;18.01;38.49;99489.50;4889924;29;19985;-95
2023/10/18 13:45:32;;;;;;;;;;;;;;;18.03;38.41;99487.28;4873173;29;19916;-95
2023/10/18 13:48:07;;;;;;;;;;;;;;;18.02;38.49;99484.88;4904313;29;20381;-95
2023/10/18 13:50:48;;;;;;;;;;;;;;;;;;;;;
2023/10/18 13:56:12;;;;;;;;;;;;;;;17.94;38.50;99484.53;4978057;28;19989;-93
2023/10/18 13:58:41;;;;;;;;;;;;;;;17.93;38.60;99485.66;4966486;28;19925;-95
2023/10/18 14:01:18;;;;;;;;;;;;;;;17.92;38.51;99481.31;4983327;28;20001;-95
2023/10/18 14:03:54;;;;;;;;;;;;;;;;;;;;;
2023/10/18 14:06:20;;;;;;;;;;;;;;;17.91;39.29;99482.44;4984935;28;19978;-96
2023/10/18 14:09:14;;;;;;;;;;;;;;;17.91;38.65;99468.03;4964527;28;20345;-93
2023/10/18 14:11:43;;;;;;;;;;;;;;;17.87;39.57;99472.50;4983612;28;19921;-94
2023/10/18 14:14:09;;;;;;;;;;;;;;;17.86;39.84;99479.06;4983387;28;19920;-92
2023/10/18 14:16:34;;;;;;;;;;;;;;;17.83;40.58;99472.31;4963225;28;20012;-90
2023/10/18 14:19:00;;;;;;;;;;;;;;;17.77;40.61;99473.53;4973799;28;19926;-93
2023/10/18 14:21:25;;;;;;;;;;;;;;;17.77;40.72;99474.34;4976888;28;19925;-93
2023/10/18 14:25:07;;;;;;;;;;;;;;;;;;;;;
2023/10/18 14:27:05;;;;;;;;;;;;;;;17.68;41.10;99478.94;4971198;28;19914;-95
2023/10/18 14:29:57;;;;;;;;;;;;;;;;;;;;;
2023/10/18 14:35:46;;;;;;;;;;;;;;;17.51;42.19;99474.19;5046236;28;19986;-95
2023/10/18 14:38:43;;;;;;;;;;;;;;;17.51;42.54;99474.19;5029565;28;19945;-95
2023/10/18 14:41:14;;;;;;;;;;;;;;;17.49;42.57;99475.63;5015724;28;19917;-96
2023/10/18 14:44:01;;;;;;;;;;;;;;;;;;;;;
2023/10/18 14:46:30;;;;;;;;;;;;;;;17.42;42.81;99476.06;5002635;28;20004;-91
2023/10/18 14:52:19;;;;;;;;;;;;;;;17.25;43.67;99479.50;4997300;28;19917;-94
2023/10/18 14:55:03;;;;;;;;;;;;;;;17.19;44.05;99480.75;4977687;28;19984;-94
2023/10/18 14:57:38;;;;;;;;;;;;;;;17.18;43.48;99479.13;5008338;28;19921;-94
2023/10/18 15:00:10;;;;;;;;;;;;;;;17.15;43.73;99483.25;4982960;28;19921;-94
2023/10/18 15:02:36;;;;;;;;;;;;;;;17.09;44.05;99492.66;4967094;28;19913;-92
2023/10/18 15:05:11;;;;;;;;;;;;;;;17.03;43.85;99490.38;4966815;28;19925;-94
2023/10/18 15:07:42;;;;;;;;;;;;;;;16.95;44.24;99483.75;4984226;28;19913;-93
2023/10/18 15:10:34;;;;;;;;;;;;;;;16.95;44.40;99486.47;4966789;28;19918;-93
2023/10/18 15:13:02;;;;;;;;;;;;;;;16.84;44.95;99483.19;4947430;28;19914;-93
2023/10/18 15:15:33;;;;;;;;;;;;;;;16.84;44.94;99487.84;4964998;28;19914;-95
2023/10/18 15:18:17;;;;;;;;;;;;;;;16.75;44.63;99480.38;4966210;28;19918;-96
2023/10/18 15:20:48;;;;;;;;;;;;;;;16.67;45.16;99481.09;4981710;28;20434;-94
2023/10/18 15:23:19;;;;;;;;;;;;;;;16.63;45.44;99487.47;4950408;28;20009;-90
2023/10/18 15:25:45;;;;;;;;;;;;;;;16.59;45.80;99487.25;4979565;28;19914;-93
2023/10/18 15:28:20;;;;;;;;;;;;;;;;;;;;;
2023/10/18 15:30:46;;;;;;;;;;;;;;;16.46;45.78;99483.47;4973016;28;20349;-95
2023/10/18 15:33:13;;;;;;;;;;;;;;;16.41;45.79;99480.03;4969216;28;19914;-96
2023/10/18 15:35:44;;;;;;;;;;;;;;;16.33;46.42;99487.81;4974928;28;20328;-96
2023/10/18 15:38:12;;;;;;;;;;;;;;;16.27;46.41;99496.34;4974771;28;19921;-96
2023/10/18 15:40:45;;;;;;;;;;;;;;;16.20;46.62;99498.69;4983625;28;20307;-96
2023/10/18 15:43:26;;;;;;;;;;;;;;;;;;;;;
2023/10/18 15:45:55;;;;;;;;;;;;;;;15.97;47.15;99501.28;4995577;28;19977;-95
2023/10/18 15:48:20;;;;;;;;;;;;;;;15.95;47.03;99504.31;4996588;28;19982;-93
2023/10/18 15:50:48;;;;;;;;;;;;;;;15.97;47.44;99501.28;4993617;28;20287;-93
2023/10/18 15:56:02;;;;;;;;;;;;;;;15.90;47.63;99507.13;4989395;28;19914;-93
2023/10/18 15:58:29;;;;;;;;;;;;;;;15.86;47.54;99505.31;5008927;28;19945;-92
2023/10/18 16:00:59;;;;;;;;;;;;;;;15.81;47.77;99508.13;4994934;28;19932;-94
2023/10/18 16:03:24;;;;;;;;;;;;;;;15.73;47.97;99499.56;4995855;28;19952;-94
2023/10/18 16:06:02;;;;;;;;;;;;;;;15.63;48.29;99507.06;4994545;28;19914;-94
2023/10/18 16:08:27;;;;;;;;;;;;;;;15.59;48.76;99503.34;5011167;28;20269;-92
2023/10/18 16:11:04;;;;;;;;;;;;;;;15.57;48.92;99509.06;4993044;28;19920;-93
2023/10/18 16:13:32;;;;;;;;;;;;;;;15.43;49.30;99500.06;4995060;28;19913;-92
2023/10/18 16:16:01;;;;;;;;;;;;;;;15.38;49.54;99492.00;5005174;28;19953;-92
2023/10/18 16:18:30;;;;;;;;;;;;;;;15.32;49.79;99494.03;4997905;28;19947;-93
2023/10/18 16:20:58;;;;;;;;;;;;;;;15.26;50.03;99493.28;5009065;28;20398;-93
2023/10/18 16:23:23;;;;;;;;;;;;;;;15.23;49.87;99506.63;5027084;28;19976;-92
2023/10/18 16:25:52;;;;;;;;;;;;;;;15.14;50.09;99493.75;5010774;28;19928;-92
2023/10/18 16:28:18;;;;;;;;;;;;;;;15.07;50.49;99497.94;5034027;28;19939;-94
2023/10/18 16:30:45;;;;;;;;;;;;;;;15.03;50.69;99505.06;5005362;28;19925;-92
2023/10/18 16:33:11;;;;;;;;;;;;;;;14.96;50.71;99500.00;4988877;28;19913;-91
2023/10/18 16:35:37;;;;;;;;;;;;;;;14.92;50.67;99498.97;4984697;28;19984;-93
2023/10/18 16:38:04;;;;;;;;;;;;;;;14.84;51.02;99496.94;4998520;28;19971;-92
2023/10/18 16:40:32;;;;;;;;;;;;;;;14.77;51.36;99497.28;5015758;28;19917;-93
2023/10/18 16:43:00;;;;;;;;;;;;;;;14.64;51.72;99498.03;4982405;28;19914;-93
2023/10/18 16:45:25;;;;;;;;;;;;;;;14.63;51.87;99502.66;4983032;28;19921;-91
2023/10/18 16:47:51;;;;;;;;;;;;;;;14.62;51.93;99501.03;4997835;28;20395;-91
2023/10/18 16:50:26;;;;;;;;;;;;;;;14.58;52.30;99505.41;4997690;28;19920;-94
2023/10/18 16:52:51;;;;;;;;;;;;;;;14.52;52.44;99501.13;4983069;28;20273;-93
2023/10/18 16:55:17;;;;;;;;;;;;;;;14.50;52.59;99501.41;4981600;28;19964;-92
2023/10/18 16:57:46;;;;;;;;;;;;;;;14.40;52.68;99500.75;4994232;28;20403;-92
2023/10/18 17:00:22;;;;;;;;;;;;;;;14.39;52.64;99504.56;4998011;28;20406;-93
2023/10/18 17:02:49;;;;;;;;;;;;;;;14.35;52.91;99502.41;4999805;28;20315;-93
2023/10/18 17:05:14;;;;;;;;;;;;;;;14.35;53.04;99509.75;4998653;28;19929;-93
2023/10/18 17:07:45;;;;;;;;;;;;;;;14.30;53.34;99512.53;4998528;28;19913;-94
2023/10/18 17:10:12;;;;;;;;;;;;;;;14.25;53.24;99509.88;4999280;28;19920;-94
2023/10/18 17:12:38;;;;;;;;;;;;;;;14.25;53.43;99501.75;5015269;28;19964;-94